sensor_id;sensor_type;location;lat;lon;timestamp;temperature;humidity
13998;DHT22;7074;51.508;7.018;2022-10-31T00:00:44;16.50;99.90
13998;DHT22;7074;51.508;7.018;2022-10-31T00:03:11;16.50;99.90
13998;DHT22;7074;51.508;7.018;2022-10-31T00:05:42;16.60;99.90
13998;DHT22;7074;51.508;7.018;2022-10-31T00:08:10;16.60;99.90
13998;DHT22;7074;51.508;7.018;2022-10-31T00:10:38;16.50;99.90
13998;DHT22;7074;51.508;7.018;2022-10-31T00:13:05;16.50;99.90
13998;DHT22;7074;51.508;7.018;2022-10-31T00:15:33;16.50;99.90
13998;DHT22;7074;51.508;7.018;2022-10-31T00:18:00;16.50;99.90
13998;DHT22;7074;51.508;7.018;2022-10-31T00:20:28;16.50;99.90
13998;DHT22;7074;51.508;7.018;2022-10-31T00:22:59;16.50;99.90
13998;DHT22;7074;51.508;7.018;2022-10-31T00:25:27;16.40;99.90
13998;DHT22;7074;51.508;7.018;2022-10-31T00:27:55;16.40;99.90
13998;DHT22;7074;51.508;7.018;2022-10-31T00:30:22;16.50;99.90
13998;DHT22;7074;51.508;7.018;2022-10-31T00:32:49;16.50;99.90
13998;DHT22;7074;51.508;7.018;2022-10-31T00:35:17;16.40;99.90
13998;DHT22;7074;51.508;7.018;2022-10-31T00:37:44;16.30;99.90
13998;DHT22;7074;51.508;7.018;2022-10-31T00:40:13;16.30;99.90
13998;DHT22;7074;51.508;7.018;2022-10-31T00:42:41;16.30;99.90
13998;DHT22;7074;51.508;7.018;2022-10-31T00:45:09;16.20;99.90
13998;DHT22;7074;51.508;7.018;2022-10-31T00:47:37;16.20;99.90
13998;DHT22;7074;51.508;7.018;2022-10-31T00:50:05;16.20;99.90
13998;DHT22;7074;51.508;7.018;2022-10-31T00:52:33;16.20;99.90
13998;DHT22;7074;51.508;7.018;2022-10-31T00:55:00;16.10;99.90
13998;DHT22;7074;51.508;7.018;2022-10-31T00:57:29;16.10;99.90
13998;DHT22;7074;51.508;7.018;2022-10-31T00:59:56;16.10;99.90
13998;DHT22;7074;51.508;7.018;2022-10-31T01:02:24;16.20;99.90
13998;DHT22;7074;51.508;7.018;2022-10-31T01:04:51;16.10;99.90
13998;DHT22;7074;51.508;7.018;2022-10-31T01:07:20;16.10;99.90
13998;DHT22;7074;51.508;7.018;2022-10-31T01:09:48;16.20;99.90
13998;DHT22;7074;51.508;7.018;2022-10-31T01:12:16;16.20;99.90
13998;DHT22;7074;51.508;7.018;2022-10-31T01:14:45;16.10;99.90
13998;DHT22;7074;51.508;7.018;2022-10-31T01:17:13;16.10;99.90
13998;DHT22;7074;51.508;7.018;2022-10-31T01:19:40;16.10;99.90
13998;DHT22;7074;51.508;7.018;2022-10-31T01:22:07;16.10;99.90
13998;DHT22;7074;51.508;7.018;2022-10-31T01:24:35;16.10;99.90
13998;DHT22;7074;51.508;7.018;2022-10-31T01:27:03;16.10;99.90
13998;DHT22;7074;51.508;7.018;2022-10-31T01:29:33;16.10;99.90
13998;DHT22;7074;51.508;7.018;2022-10-31T01:32:02;16.00;99.90
13998;DHT22;7074;51.508;7.018;2022-10-31T01:34:29;16.00;99.90
13998;DHT22;7074;51.508;7.018;2022-10-31T01:36:56;16.00;99.90
13998;DHT22;7074;51.508;7.018;2022-10-31T01:39:24;16.10;99.90
13998;DHT22;7074;51.508;7.018;2022-10-31T01:41:53;16.10;99.90
13998;DHT22;7074;51.508;7.018;2022-10-31T01:44:53;16.10;99.90
13998;DHT22;7074;51.508;7.018;2022-10-31T01:47:32;16.10;99.90
13998;DHT22;7074;51.508;7.018;2022-10-31T01:50:03;16.10;99.90
13998;DHT22;7074;51.508;7.018;2022-10-31T01:52:34;16.20;99.90
13998;DHT22;7074;51.508;7.018;2022-10-31T01:55:06;16.20;99.90
13998;DHT22;7074;51.508;7.018;2022-10-31T01:57:35;16.20;99.90
13998;DHT22;7074;51.508;7.018;2022-10-31T02:00:07;16.10;99.90
13998;DHT22;7074;51.508;7.018;2022-10-31T02:02:42;16.20;99.90
13998;DHT22;7074;51.508;7.018;2022-10-31T02:05:14;16.10;99.90
13998;DHT22;7074;51.508;7.018;2022-10-31T02:07:48;16.10;99.90
13998;DHT22;7074;51.508;7.018;2022-10-31T02:10:19;16.10;99.90
13998;DHT22;7074;51.508;7.018;2022-10-31T02:12:49;16.00;99.90
13998;DHT22;7074;51.508;7.018;2022-10-31T02:15:17;16.00;99.90
13998;DHT22;7074;51.508;7.018;2022-10-31T02:17:46;16.00;99.90
13998;DHT22;7074;51.508;7.018;2022-10-31T02:20:16;16.00;99.90
13998;DHT22;7074;51.508;7.018;2022-10-31T02:23:29;15.90;99.90
13998;DHT22;7074;51.508;7.018;2022-10-31T02:26:28;15.90;99.90
13998;DHT22;7074;51.508;7.018;2022-10-31T02:29:25;15.80;99.90
13998;DHT22;7074;51.508;7.018;2022-10-31T02:32:02;15.80;99.90
13998;DHT22;7074;51.508;7.018;2022-10-31T02:34:36;15.70;99.90
13998;DHT22;7074;51.508;7.018;2022-10-31T02:37:11;15.70;99.90
13998;DHT22;7074;51.508;7.018;2022-10-31T02:39:47;15.80;99.90
13998;DHT22;7074;51.508;7.018;2022-10-31T02:42:31;15.70;99.90
13998;DHT22;7074;51.508;7.018;2022-10-31T02:45:07;15.70;99.90
13998;DHT22;7074;51.508;7.018;2022-10-31T02:47:37;15.70;99.90
13998;DHT22;7074;51.508;7.018;2022-10-31T02:50:08;15.60;99.90
13998;DHT22;7074;51.508;7.018;2022-10-31T02:52:38;15.60;99.90
13998;DHT22;7074;51.508;7.018;2022-10-31T02:55:11;15.50;99.90
13998;DHT22;7074;51.508;7.018;2022-10-31T02:57:40;15.50;99.90
13998;DHT22;7074;51.508;7.018;2022-10-31T03:00:09;15.50;99.90
13998;DHT22;7074;51.508;7.018;2022-10-31T03:02:53;15.50;99.90
13998;DHT22;7074;51.508;7.018;2022-10-31T03:05:36;15.40;99.90
13998;DHT22;7074;51.508;7.018;2022-10-31T03:08:13;15.40;99.90
13998;DHT22;7074;51.508;7.018;2022-10-31T03:10:46;15.30;99.90
13998;DHT22;7074;51.508;7.018;2022-10-31T03:13:22;15.30;99.90
13998;DHT22;7074;51.508;7.018;2022-10-31T03:15:53;15.20;99.90
13998;DHT22;7074;51.508;7.018;2022-10-31T03:18:26;15.20;99.90
13998;DHT22;7074;51.508;7.018;2022-10-31T03:20:58;15.20;99.90
13998;DHT22;7074;51.508;7.018;2022-10-31T03:23:30;15.20;99.90
13998;DHT22;7074;51.508;7.018;2022-10-31T03:26:01;15.00;99.90
13998;DHT22;7074;51.508;7.018;2022-10-31T03:28:33;15.00;99.90
13998;DHT22;7074;51.508;7.018;2022-10-31T03:31:04;15.00;99.90
13998;DHT22;7074;51.508;7.018;2022-10-31T03:33:38;15.00;99.90
13998;DHT22;7074;51.508;7.018;2022-10-31T03:36:08;15.00;99.90
13998;DHT22;7074;51.508;7.018;2022-10-31T03:38:38;14.90;99.90
13998;DHT22;7074;51.508;7.018;2022-10-31T03:41:11;14.90;99.90
13998;DHT22;7074;51.508;7.018;2022-10-31T03:43:43;14.90;99.90
13998;DHT22;7074;51.508;7.018;2022-10-31T03:46:13;14.80;99.90
13998;DHT22;7074;51.508;7.018;2022-10-31T03:48:42;14.90;99.90
13998;DHT22;7074;51.508;7.018;2022-10-31T03:51:14;14.80;99.90
13998;DHT22;7074;51.508;7.018;2022-10-31T03:53:47;14.80;99.90
13998;DHT22;7074;51.508;7.018;2022-10-31T03:56:29;14.70;99.90
13998;DHT22;7074;51.508;7.018;2022-10-31T03:59:02;14.70;99.90
13998;DHT22;7074;51.508;7.018;2022-10-31T04:01:32;14.60;99.90
13998;DHT22;7074;51.508;7.018;2022-10-31T04:04:05;14.60;99.90
13998;DHT22;7074;51.508;7.018;2022-10-31T04:06:34;14.60;99.90
13998;DHT22;7074;51.508;7.018;2022-10-31T04:09:05;14.50;99.90
13998;DHT22;7074;51.508;7.018;2022-10-31T04:11:36;14.40;99.90
13998;DHT22;7074;51.508;7.018;2022-10-31T04:14:27;14.40;99.90
13998;DHT22;7074;51.508;7.018;2022-10-31T04:16:57;14.40;99.90
13998;DHT22;7074;51.508;7.018;2022-10-31T04:19:35;14.40;99.90
13998;DHT22;7074;51.508;7.018;2022-10-31T04:22:03;14.40;99.90
13998;DHT22;7074;51.508;7.018;2022-10-31T04:24:30;14.40;99.90
13998;DHT22;7074;51.508;7.018;2022-10-31T04:26:58;14.40;99.90
13998;DHT22;7074;51.508;7.018;2022-10-31T04:29:27;14.40;99.90
13998;DHT22;7074;51.508;7.018;2022-10-31T04:31:54;14.30;99.90
13998;DHT22;7074;51.508;7.018;2022-10-31T04:34:21;14.30;99.90
13998;DHT22;7074;51.508;7.018;2022-10-31T04:36:51;14.30;99.90
13998;DHT22;7074;51.508;7.018;2022-10-31T04:39:18;14.30;99.90
13998;DHT22;7074;51.508;7.018;2022-10-31T04:42:06;14.30;99.90
13998;DHT22;7074;51.508;7.018;2022-10-31T04:44:33;14.30;99.90
13998;DHT22;7074;51.508;7.018;2022-10-31T04:47:01;14.30;99.90
13998;DHT22;7074;51.508;7.018;2022-10-31T04:49:28;14.30;99.90
13998;DHT22;7074;51.508;7.018;2022-10-31T04:51:57;14.30;99.90
13998;DHT22;7074;51.508;7.018;2022-10-31T04:54:24;14.20;99.90
13998;DHT22;7074;51.508;7.018;2022-10-31T04:57:10;14.30;99.90
13998;DHT22;7074;51.508;7.018;2022-10-31T04:59:37;14.30;99.90
13998;DHT22;7074;51.508;7.018;2022-10-31T05:02:05;14.30;99.90
13998;DHT22;7074;51.508;7.018;2022-10-31T05:04:42;14.30;99.90
13998;DHT22;7074;51.508;7.018;2022-10-31T05:07:11;14.30;99.90
13998;DHT22;7074;51.508;7.018;2022-10-31T05:09:39;14.30;99.90
13998;DHT22;7074;51.508;7.018;2022-10-31T05:12:06;14.30;99.90
13998;DHT22;7074;51.508;7.018;2022-10-31T05:14:52;14.30;99.90
13998;DHT22;7074;51.508;7.018;2022-10-31T05:17:58;14.30;99.90
13998;DHT22;7074;51.508;7.018;2022-10-31T05:20:54;14.30;99.90
13998;DHT22;7074;51.508;7.018;2022-10-31T05:23:30;14.20;99.90
13998;DHT22;7074;51.508;7.018;2022-10-31T05:25:59;14.30;99.90
13998;DHT22;7074;51.508;7.018;2022-10-31T05:28:26;14.30;99.90
13998;DHT22;7074;51.508;7.018;2022-10-31T05:30:54;14.20;99.90
13998;DHT22;7074;51.508;7.018;2022-10-31T05:33:21;14.10;99.90
13998;DHT22;7074;51.508;7.018;2022-10-31T05:36:07;14.10;99.90
13998;DHT22;7074;51.508;7.018;2022-10-31T05:38:49;14.10;99.90
13998;DHT22;7074;51.508;7.018;2022-10-31T05:41:23;14.10;99.90
13998;DHT22;7074;51.508;7.018;2022-10-31T05:43:53;14.10;99.90
13998;DHT22;7074;51.508;7.018;2022-10-31T05:46:26;14.10;99.90
13998;DHT22;7074;51.508;7.018;2022-10-31T05:49:13;14.10;99.90
13998;DHT22;7074;51.508;7.018;2022-10-31T05:51:59;14.00;99.90
13998;DHT22;7074;51.508;7.018;2022-10-31T05:54:36;14.00;99.90
13998;DHT22;7074;51.508;7.018;2022-10-31T05:57:04;13.90;99.90
13998;DHT22;7074;51.508;7.018;2022-10-31T05:59:31;14.00;99.90
13998;DHT22;7074;51.508;7.018;2022-10-31T06:02:00;14.00;99.90
13998;DHT22;7074;51.508;7.018;2022-10-31T06:04:47;14.00;99.90
13998;DHT22;7074;51.508;7.018;2022-10-31T06:07:15;14.00;99.90
13998;DHT22;7074;51.508;7.018;2022-10-31T06:09:44;14.00;99.90
13998;DHT22;7074;51.508;7.018;2022-10-31T06:12:12;14.00;99.90
13998;DHT22;7074;51.508;7.018;2022-10-31T06:15:15;14.00;99.90
13998;DHT22;7074;51.508;7.018;2022-10-31T06:17:42;14.00;99.90
13998;DHT22;7074;51.508;7.018;2022-10-31T06:20:23;13.90;99.90
13998;DHT22;7074;51.508;7.018;2022-10-31T06:22:59;13.90;99.90
13998;DHT22;7074;51.508;7.018;2022-10-31T06:25:29;14.00;99.90
13998;DHT22;7074;51.508;7.018;2022-10-31T06:27:57;14.00;99.90
13998;DHT22;7074;51.508;7.018;2022-10-31T06:30:31;13.90;99.90
13998;DHT22;7074;51.508;7.018;2022-10-31T06:33:02;13.90;99.90
13998;DHT22;7074;51.508;7.018;2022-10-31T06:35:31;13.90;99.90
13998;DHT22;7074;51.508;7.018;2022-10-31T06:37:59;14.00;99.90
13998;DHT22;7074;51.508;7.018;2022-10-31T06:40:34;13.90;99.90
13998;DHT22;7074;51.508;7.018;2022-10-31T06:43:22;13.90;99.90
13998;DHT22;7074;51.508;7.018;2022-10-31T06:46:01;14.00;99.90
13998;DHT22;7074;51.508;7.018;2022-10-31T06:48:48;14.00;99.90
13998;DHT22;7074;51.508;7.018;2022-10-31T06:51:25;14.00;99.90
13998;DHT22;7074;51.508;7.018;2022-10-31T06:53:53;13.90;99.90
13998;DHT22;7074;51.508;7.018;2022-10-31T06:56:23;14.00;99.90
13998;DHT22;7074;51.508;7.018;2022-10-31T06:58:54;14.00;99.90
13998;DHT22;7074;51.508;7.018;2022-10-31T07:01:41;14.00;99.90
13998;DHT22;7074;51.508;7.018;2022-10-31T07:04:09;14.00;99.90
13998;DHT22;7074;51.508;7.018;2022-10-31T07:06:38;14.00;99.90
13998;DHT22;7074;51.508;7.018;2022-10-31T07:09:05;14.00;99.90
13998;DHT22;7074;51.508;7.018;2022-10-31T07:11:34;14.10;99.90
13998;DHT22;7074;51.508;7.018;2022-10-31T07:14:01;14.10;99.90
13998;DHT22;7074;51.508;7.018;2022-10-31T07:16:28;14.10;99.90
13998;DHT22;7074;51.508;7.018;2022-10-31T07:18:56;14.10;99.90
13998;DHT22;7074;51.508;7.018;2022-10-31T07:21:23;14.10;99.90
13998;DHT22;7074;51.508;7.018;2022-10-31T07:23:52;14.10;99.90
13998;DHT22;7074;51.508;7.018;2022-10-31T07:26:41;14.20;99.90
13998;DHT22;7074;51.508;7.018;2022-10-31T07:29:09;14.20;99.90
13998;DHT22;7074;51.508;7.018;2022-10-31T07:31:37;14.20;99.90
13998;DHT22;7074;51.508;7.018;2022-10-31T07:34:11;14.20;99.90
13998;DHT22;7074;51.508;7.018;2022-10-31T07:36:57;14.20;99.90
13998;DHT22;7074;51.508;7.018;2022-10-31T07:39:24;14.20;99.90
13998;DHT22;7074;51.508;7.018;2022-10-31T07:41:53;14.30;99.90
13998;DHT22;7074;51.508;7.018;2022-10-31T07:44:21;14.30;99.90
13998;DHT22;7074;51.508;7.018;2022-10-31T07:47:06;14.30;99.90
13998;DHT22;7074;51.508;7.018;2022-10-31T07:50:07;14.20;99.90
13998;DHT22;7074;51.508;7.018;2022-10-31T07:53:00;14.40;99.90
13998;DHT22;7074;51.508;7.018;2022-10-31T07:55:45;14.40;99.90
13998;DHT22;7074;51.508;7.018;2022-10-31T07:58:16;14.40;99.90
13998;DHT22;7074;51.508;7.018;2022-10-31T08:00:45;14.50;99.90
13998;DHT22;7074;51.508;7.018;2022-10-31T08:03:18;14.60;99.90
13998;DHT22;7074;51.508;7.018;2022-10-31T08:06:05;14.50;99.90
13998;DHT22;7074;51.508;7.018;2022-10-31T08:08:53;14.60;99.90
13998;DHT22;7074;51.508;7.018;2022-10-31T08:11:22;14.70;99.90
13998;DHT22;7074;51.508;7.018;2022-10-31T08:13:51;14.70;99.90
13998;DHT22;7074;51.508;7.018;2022-10-31T08:16:19;14.80;99.90
13998;DHT22;7074;51.508;7.018;2022-10-31T08:18:54;14.90;99.90
13998;DHT22;7074;51.508;7.018;2022-10-31T08:21:22;14.90;99.90
13998;DHT22;7074;51.508;7.018;2022-10-31T08:23:50;15.00;99.90
13998;DHT22;7074;51.508;7.018;2022-10-31T08:26:20;15.10;99.90
13998;DHT22;7074;51.508;7.018;2022-10-31T08:28:51;15.20;99.90
13998;DHT22;7074;51.508;7.018;2022-10-31T08:31:21;15.30;99.90
13998;DHT22;7074;51.508;7.018;2022-10-31T08:33:48;15.30;99.90
13998;DHT22;7074;51.508;7.018;2022-10-31T08:36:38;15.40;99.90
13998;DHT22;7074;51.508;7.018;2022-10-31T08:39:12;15.50;99.90
13998;DHT22;7074;51.508;7.018;2022-10-31T08:41:40;15.50;99.90
13998;DHT22;7074;51.508;7.018;2022-10-31T08:44:13;15.60;99.90
13998;DHT22;7074;51.508;7.018;2022-10-31T08:46:42;15.70;99.90
13998;DHT22;7074;51.508;7.018;2022-10-31T08:49:10;15.80;99.90
13998;DHT22;7074;51.508;7.018;2022-10-31T08:51:39;15.90;99.90
13998;DHT22;7074;51.508;7.018;2022-10-31T08:54:07;15.90;99.90
13998;DHT22;7074;51.508;7.018;2022-10-31T08:56:54;16.00;99.90
13998;DHT22;7074;51.508;7.018;2022-10-31T08:59:43;16.00;99.90
13998;DHT22;7074;51.508;7.018;2022-10-31T09:02:45;16.10;99.90
13998;DHT22;7074;51.508;7.018;2022-10-31T09:05:13;16.20;99.90
13998;DHT22;7074;51.508;7.018;2022-10-31T09:07:41;16.20;99.90
13998;DHT22;7074;51.508;7.018;2022-10-31T09:10:09;16.30;99.90
13998;DHT22;7074;51.508;7.018;2022-10-31T09:12:37;16.30;99.90
13998;DHT22;7074;51.508;7.018;2022-10-31T09:15:33;16.30;99.90
13998;DHT22;7074;51.508;7.018;2022-10-31T09:18:14;16.50;99.90
13998;DHT22;7074;51.508;7.018;2022-10-31T09:20:50;16.60;99.90
13998;DHT22;7074;51.508;7.018;2022-10-31T09:23:19;16.70;99.90
13998;DHT22;7074;51.508;7.018;2022-10-31T09:25:48;16.60;99.90
13998;DHT22;7074;51.508;7.018;2022-10-31T09:28:36;16.70;99.90
13998;DHT22;7074;51.508;7.018;2022-10-31T09:31:13;16.70;99.90
13998;DHT22;7074;51.508;7.018;2022-10-31T09:33:55;16.80;99.90
13998;DHT22;7074;51.508;7.018;2022-10-31T09:36:44;16.90;99.90
13998;DHT22;7074;51.508;7.018;2022-10-31T09:39:19;16.80;99.90
13998;DHT22;7074;51.508;7.018;2022-10-31T09:42:04;17.00;99.90
13998;DHT22;7074;51.508;7.018;2022-10-31T09:44:46;17.00;99.90
13998;DHT22;7074;51.508;7.018;2022-10-31T09:47:39;17.00;99.90
13998;DHT22;7074;51.508;7.018;2022-10-31T09:50:32;17.10;99.90
13998;DHT22;7074;51.508;7.018;2022-10-31T09:53:23;17.10;99.90
13998;DHT22;7074;51.508;7.018;2022-10-31T09:55:51;17.20;99.90
13998;DHT22;7074;51.508;7.018;2022-10-31T09:58:23;17.10;99.90
13998;DHT22;7074;51.508;7.018;2022-10-31T10:00:58;17.10;99.90
13998;DHT22;7074;51.508;7.018;2022-10-31T10:03:34;17.20;99.90
13998;DHT22;7074;51.508;7.018;2022-10-31T10:06:21;17.20;99.90
13998;DHT22;7074;51.508;7.018;2022-10-31T10:09:08;17.30;99.90
13998;DHT22;7074;51.508;7.018;2022-10-31T10:12:03;17.40;99.90
13998;DHT22;7074;51.508;7.018;2022-10-31T10:14:46;17.40;99.90
13998;DHT22;7074;51.508;7.018;2022-10-31T10:17:24;17.50;99.90
13998;DHT22;7074;51.508;7.018;2022-10-31T10:22:58;17.70;99.90
13998;DHT22;7074;51.508;7.018;2022-10-31T10:25:34;17.90;99.90
13998;DHT22;7074;51.508;7.018;2022-10-31T10:28:13;17.90;99.90
13998;DHT22;7074;51.508;7.018;2022-10-31T10:30:47;17.90;99.90
13998;DHT22;7074;51.508;7.018;2022-10-31T10:33:19;18.00;99.90
13998;DHT22;7074;51.508;7.018;2022-10-31T10:35:51;18.10;99.90
13998;DHT22;7074;51.508;7.018;2022-10-31T10:38:24;18.20;99.90
13998;DHT22;7074;51.508;7.018;2022-10-31T10:40:55;18.30;99.90
13998;DHT22;7074;51.508;7.018;2022-10-31T10:43:24;18.30;99.90
13998;DHT22;7074;51.508;7.018;2022-10-31T10:46:05;18.40;99.90
13998;DHT22;7074;51.508;7.018;2022-10-31T10:48:56;18.30;99.90
13998;DHT22;7074;51.508;7.018;2022-10-31T10:51:33;18.40;99.90
13998;DHT22;7074;51.508;7.018;2022-10-31T10:57:14;18.40;99.90
13998;DHT22;7074;51.508;7.018;2022-10-31T10:59:43;18.40;99.90
13998;DHT22;7074;51.508;7.018;2022-10-31T11:02:17;18.40;99.90
13998;DHT22;7074;51.508;7.018;2022-10-31T11:04:49;18.50;99.90
13998;DHT22;7074;51.508;7.018;2022-10-31T11:07:18;18.50;99.90
13998;DHT22;7074;51.508;7.018;2022-10-31T11:09:46;18.50;99.90
13998;DHT22;7074;51.508;7.018;2022-10-31T11:12:20;18.60;99.90
13998;DHT22;7074;51.508;7.018;2022-10-31T11:14:50;18.60;99.90
13998;DHT22;7074;51.508;7.018;2022-10-31T11:17:25;18.70;99.90
13998;DHT22;7074;51.508;7.018;2022-10-31T11:20:01;18.70;99.90
13998;DHT22;7074;51.508;7.018;2022-10-31T11:22:31;18.80;99.90
13998;DHT22;7074;51.508;7.018;2022-10-31T11:24:58;18.80;99.90
13998;DHT22;7074;51.508;7.018;2022-10-31T11:27:26;18.90;99.90
13998;DHT22;7074;51.508;7.018;2022-10-31T11:30:05;19.00;99.90
13998;DHT22;7074;51.508;7.018;2022-10-31T11:32:33;19.00;99.90
13998;DHT22;7074;51.508;7.018;2022-10-31T11:35:02;19.10;99.90
13998;DHT22;7074;51.508;7.018;2022-10-31T11:37:42;19.10;99.90
13998;DHT22;7074;51.508;7.018;2022-10-31T11:40:16;19.20;99.90
13998;DHT22;7074;51.508;7.018;2022-10-31T11:42:44;19.30;99.90
13998;DHT22;7074;51.508;7.018;2022-10-31T11:45:15;19.30;99.90
13998;DHT22;7074;51.508;7.018;2022-10-31T11:47:46;19.30;99.90
13998;DHT22;7074;51.508;7.018;2022-10-31T11:50:20;19.40;99.90
13998;DHT22;7074;51.508;7.018;2022-10-31T11:52:50;19.40;99.90
13998;DHT22;7074;51.508;7.018;2022-10-31T11:55:30;19.50;99.90
13998;DHT22;7074;51.508;7.018;2022-10-31T11:57:58;19.50;99.90
13998;DHT22;7074;51.508;7.018;2022-10-31T12:00:28;19.60;99.90
13998;DHT22;7074;51.508;7.018;2022-10-31T12:03:14;19.70;99.90
13998;DHT22;7074;51.508;7.018;2022-10-31T12:05:46;19.60;99.90
13998;DHT22;7074;51.508;7.018;2022-10-31T12:08:16;19.50;99.90
13998;DHT22;7074;51.508;7.018;2022-10-31T12:10:50;19.40;99.90
13998;DHT22;7074;51.508;7.018;2022-10-31T12:13:32;19.50;99.90
13998;DHT22;7074;51.508;7.018;2022-10-31T12:16:05;19.60;99.90
13998;DHT22;7074;51.508;7.018;2022-10-31T12:18:46;19.60;99.90
13998;DHT22;7074;51.508;7.018;2022-10-31T12:21:38;19.60;99.90
13998;DHT22;7074;51.508;7.018;2022-10-31T12:24:18;19.60;99.90
13998;DHT22;7074;51.508;7.018;2022-10-31T12:26:53;19.70;99.90
13998;DHT22;7074;51.508;7.018;2022-10-31T12:29:38;19.80;99.90
13998;DHT22;7074;51.508;7.018;2022-10-31T12:32:20;19.90;99.90
13998;DHT22;7074;51.508;7.018;2022-10-31T12:34:58;19.90;99.90
13998;DHT22;7074;51.508;7.018;2022-10-31T12:37:41;20.00;99.90
13998;DHT22;7074;51.508;7.018;2022-10-31T12:40:26;20.10;99.90
13998;DHT22;7074;51.508;7.018;2022-10-31T12:43:03;20.10;99.90
13998;DHT22;7074;51.508;7.018;2022-10-31T12:45:41;20.00;99.90
13998;DHT22;7074;51.508;7.018;2022-10-31T12:48:33;20.20;99.90
13998;DHT22;7074;51.508;7.018;2022-10-31T12:51:13;20.30;99.90
13998;DHT22;7074;51.508;7.018;2022-10-31T12:54:08;20.20;99.90
13998;DHT22;7074;51.508;7.018;2022-10-31T12:56:47;20.30;99.90
13998;DHT22;7074;51.508;7.018;2022-10-31T12:59:21;20.30;99.90
13998;DHT22;7074;51.508;7.018;2022-10-31T13:01:55;20.20;99.90
13998;DHT22;7074;51.508;7.018;2022-10-31T13:04:35;19.80;99.90
13998;DHT22;7074;51.508;7.018;2022-10-31T13:07:08;19.80;99.90
13998;DHT22;7074;51.508;7.018;2022-10-31T13:09:40;20.00;99.90
13998;DHT22;7074;51.508;7.018;2022-10-31T13:12:13;20.10;99.90
13998;DHT22;7074;51.508;7.018;2022-10-31T13:14:44;20.20;99.90
13998;DHT22;7074;51.508;7.018;2022-10-31T13:17:24;20.30;99.90
13998;DHT22;7074;51.508;7.018;2022-10-31T13:20:02;20.30;99.90
13998;DHT22;7074;51.508;7.018;2022-10-31T13:22:32;20.50;99.90
13998;DHT22;7074;51.508;7.018;2022-10-31T13:25:15;20.60;99.90
13998;DHT22;7074;51.508;7.018;2022-10-31T13:27:48;20.60;99.90
13998;DHT22;7074;51.508;7.018;2022-10-31T13:30:19;20.60;99.90
13998;DHT22;7074;51.508;7.018;2022-10-31T13:32:50;20.60;99.90
13998;DHT22;7074;51.508;7.018;2022-10-31T13:35:24;20.60;99.90
13998;DHT22;7074;51.508;7.018;2022-10-31T13:38:03;20.60;99.90
13998;DHT22;7074;51.508;7.018;2022-10-31T13:40:41;20.60;99.90
13998;DHT22;7074;51.508;7.018;2022-10-31T13:43:22;20.60;99.90
13998;DHT22;7074;51.508;7.018;2022-10-31T13:45:53;20.70;99.90
13998;DHT22;7074;51.508;7.018;2022-10-31T13:48:35;20.70;99.90
13998;DHT22;7074;51.508;7.018;2022-10-31T13:51:05;20.70;99.90
13998;DHT22;7074;51.508;7.018;2022-10-31T13:53:38;20.70;99.90
13998;DHT22;7074;51.508;7.018;2022-10-31T13:56:18;20.70;99.90
13998;DHT22;7074;51.508;7.018;2022-10-31T13:59:00;20.80;99.90
13998;DHT22;7074;51.508;7.018;2022-10-31T14:01:28;20.80;99.90
13998;DHT22;7074;51.508;7.018;2022-10-31T14:04:05;20.80;99.90
13998;DHT22;7074;51.508;7.018;2022-10-31T14:06:41;20.90;99.90
13998;DHT22;7074;51.508;7.018;2022-10-31T14:09:22;20.90;99.90
13998;DHT22;7074;51.508;7.018;2022-10-31T14:11:51;20.90;99.90
13998;DHT22;7074;51.508;7.018;2022-10-31T14:14:21;20.90;99.90
13998;DHT22;7074;51.508;7.018;2022-10-31T14:16:55;20.90;99.90
13998;DHT22;7074;51.508;7.018;2022-10-31T14:19:23;20.90;99.90
13998;DHT22;7074;51.508;7.018;2022-10-31T14:21:51;21.00;99.90
13998;DHT22;7074;51.508;7.018;2022-10-31T14:24:36;21.00;99.90
13998;DHT22;7074;51.508;7.018;2022-10-31T14:27:34;20.90;99.90
13998;DHT22;7074;51.508;7.018;2022-10-31T14:30:17;21.00;99.90
13998;DHT22;7074;51.508;7.018;2022-10-31T14:32:50;21.00;99.90
13998;DHT22;7074;51.508;7.018;2022-10-31T14:35:21;21.00;99.90
13998;DHT22;7074;51.508;7.018;2022-10-31T14:38:25;21.10;99.90
13998;DHT22;7074;51.508;7.018;2022-10-31T14:41:14;21.10;99.90
13998;DHT22;7074;51.508;7.018;2022-10-31T14:44:16;21.10;99.90
13998;DHT22;7074;51.508;7.018;2022-10-31T14:46:53;21.10;99.90
13998;DHT22;7074;51.508;7.018;2022-10-31T14:49:32;21.00;99.90
13998;DHT22;7074;51.508;7.018;2022-10-31T14:52:05;21.00;99.90
13998;DHT22;7074;51.508;7.018;2022-10-31T14:54:37;21.00;99.90
13998;DHT22;7074;51.508;7.018;2022-10-31T14:57:12;21.00;99.90
13998;DHT22;7074;51.508;7.018;2022-10-31T14:59:46;21.00;99.90
13998;DHT22;7074;51.508;7.018;2022-10-31T15:02:18;20.90;99.90
13998;DHT22;7074;51.508;7.018;2022-10-31T15:04:50;20.90;99.90
13998;DHT22;7074;51.508;7.018;2022-10-31T15:07:21;20.80;99.90
13998;DHT22;7074;51.508;7.018;2022-10-31T15:09:55;20.90;99.90
13998;DHT22;7074;51.508;7.018;2022-10-31T15:12:25;20.90;99.90
13998;DHT22;7074;51.508;7.018;2022-10-31T15:14:53;20.80;99.90
13998;DHT22;7074;51.508;7.018;2022-10-31T15:17:23;20.80;99.90
13998;DHT22;7074;51.508;7.018;2022-10-31T15:19:52;20.80;99.90
13998;DHT22;7074;51.508;7.018;2022-10-31T15:22:23;20.80;99.90
13998;DHT22;7074;51.508;7.018;2022-10-31T15:24:50;20.80;99.90
13998;DHT22;7074;51.508;7.018;2022-10-31T15:27:22;20.70;99.90
13998;DHT22;7074;51.508;7.018;2022-10-31T15:29:51;20.80;99.90
13998;DHT22;7074;51.508;7.018;2022-10-31T15:32:22;20.70;99.90
13998;DHT22;7074;51.508;7.018;2022-10-31T15:34:51;20.70;99.90
13998;DHT22;7074;51.508;7.018;2022-10-31T15:37:20;20.60;99.90
13998;DHT22;7074;51.508;7.018;2022-10-31T15:39:48;20.50;99.90
13998;DHT22;7074;51.508;7.018;2022-10-31T15:42:22;20.60;99.90
13998;DHT22;7074;51.508;7.018;2022-10-31T15:44:55;20.50;99.90
13998;DHT22;7074;51.508;7.018;2022-10-31T15:47:25;20.50;99.90
13998;DHT22;7074;51.508;7.018;2022-10-31T15:49:56;20.50;99.90
13998;DHT22;7074;51.508;7.018;2022-10-31T15:52:29;20.50;99.90
13998;DHT22;7074;51.508;7.018;2022-10-31T15:55:04;20.50;99.90
13998;DHT22;7074;51.508;7.018;2022-10-31T15:57:33;20.40;99.90
13998;DHT22;7074;51.508;7.018;2022-10-31T16:00:00;20.40;99.90
13998;DHT22;7074;51.508;7.018;2022-10-31T16:02:29;20.40;99.90
13998;DHT22;7074;51.508;7.018;2022-10-31T16:04:58;20.30;99.90
13998;DHT22;7074;51.508;7.018;2022-10-31T16:07:28;20.30;99.90
13998;DHT22;7074;51.508;7.018;2022-10-31T16:09:57;20.20;99.90
13998;DHT22;7074;51.508;7.018;2022-10-31T16:12:35;20.20;99.90
13998;DHT22;7074;51.508;7.018;2022-10-31T16:15:04;20.10;99.90
13998;DHT22;7074;51.508;7.018;2022-10-31T16:17:33;20.10;99.90
13998;DHT22;7074;51.508;7.018;2022-10-31T16:20:02;20.10;99.90
13998;DHT22;7074;51.508;7.018;2022-10-31T16:22:32;20.00;99.90
13998;DHT22;7074;51.508;7.018;2022-10-31T16:25:02;19.90;99.90
13998;DHT22;7074;51.508;7.018;2022-10-31T16:27:33;19.70;99.90
13998;DHT22;7074;51.508;7.018;2022-10-31T16:30:03;19.70;99.90
13998;DHT22;7074;51.508;7.018;2022-10-31T16:32:55;19.70;99.90
13998;DHT22;7074;51.508;7.018;2022-10-31T16:35:25;19.70;99.90